createdAt,value
2018-09-15T00:02:11.680Z,8.53
2018-09-15T00:04:38.953Z,9.10
2018-09-15T00:07:06.164Z,9.50
2018-09-15T00:09:33.411Z,9.20
2018-09-15T00:12:00.654Z,8.83
2018-09-15T00:14:27.868Z,8.13
2018-09-15T00:16:55.093Z,9.00
2018-09-15T00:19:22.335Z,8.00
2018-09-15T00:21:49.958Z,9.17
2018-09-15T00:24:17.196Z,7.70
2018-09-15T00:26:44.428Z,7.30
2018-09-15T00:29:11.648Z,7.63
2018-09-15T00:31:38.947Z,7.10
2018-09-15T00:34:06.213Z,6.30
2018-09-15T00:36:33.436Z,7.10
2018-09-15T00:39:00.688Z,6.23
2018-09-15T00:41:27.835Z,6.60
2018-09-15T00:43:55.028Z,6.40
2018-09-15T00:46:22.203Z,6.10
2018-09-15T00:48:49.380Z,6.10
2018-09-15T00:51:16.576Z,6.53
2018-09-15T00:53:43.768Z,5.60
2018-09-15T00:56:10.940Z,6.17
2018-09-15T00:58:38.159Z,6.37
2018-09-15T01:01:05.599Z,6.40
2018-09-15T01:03:32.768Z,6.23
2018-09-15T01:05:59.949Z,6.80
2018-09-15T01:08:27.124Z,6.33
2018-09-15T01:10:54.353Z,6.37
2018-09-15T01:13:22.356Z,6.30
2018-09-15T01:15:49.544Z,6.60
2018-09-15T01:18:16.721Z,6.50
2018-09-15T01:20:43.901Z,6.20
2018-09-15T01:23:11.071Z,6.20
2018-09-15T01:25:38.243Z,6.60
2018-09-15T01:28:05.450Z,6.20
2018-09-15T01:30:32.675Z,6.30
2018-09-15T01:32:59.912Z,6.40
2018-09-15T01:35:27.133Z,6.03
2018-09-15T01:37:54.354Z,5.93
2018-09-15T01:40:21.579Z,6.00
2018-09-15T01:42:48.827Z,5.87
2018-09-15T01:45:16.057Z,5.73
2018-09-15T01:47:43.320Z,5.37
2018-09-15T01:50:10.547Z,5.90
2018-09-15T01:52:37.783Z,5.80
2018-09-15T01:55:05.003Z,5.30
2018-09-15T01:57:32.315Z,5.10
2018-09-15T01:59:59.541Z,5.70
2018-09-15T02:02:26.864Z,5.60
2018-09-15T02:04:54.136Z,5.70
2018-09-15T02:07:21.372Z,5.37
2018-09-15T02:09:48.640Z,5.00
2018-09-15T02:12:15.871Z,5.50
2018-09-15T02:14:43.285Z,5.80
2018-09-15T02:17:10.513Z,5.37
2018-09-15T02:19:37.755Z,4.90
2018-09-15T02:22:05.017Z,5.53
2018-09-15T02:24:32.275Z,5.83
2018-09-15T02:26:59.512Z,5.10
2018-09-15T02:29:26.679Z,5.00
2018-09-15T02:31:53.863Z,5.40
2018-09-15T02:34:21.085Z,5.93
2018-09-15T02:36:48.264Z,5.97
2018-09-15T02:39:15.472Z,5.20
2018-09-15T02:41:42.651Z,5.67
2018-09-15T02:44:09.803Z,5.90
2018-09-15T02:46:36.992Z,6.73
2018-09-15T02:49:04.194Z,6.10
2018-09-15T02:51:31.370Z,6.80
2018-09-15T02:53:58.548Z,5.90
2018-09-15T02:56:25.732Z,6.00
2018-09-15T02:58:52.896Z,5.57
2018-09-15T03:01:20.052Z,5.70
2018-09-15T03:03:47.228Z,5.47
2018-09-15T03:06:14.423Z,4.87
2018-09-15T03:08:42.372Z,5.40
2018-09-15T03:11:09.572Z,6.07
2018-09-15T03:13:36.908Z,5.30
2018-09-15T03:16:04.091Z,4.77
2018-09-15T03:18:31.295Z,6.27
2018-09-15T03:20:58.479Z,4.87
2018-09-15T03:23:25.680Z,5.10
2018-09-15T03:25:52.900Z,5.10
2018-09-15T03:28:20.199Z,6.33
2018-09-15T03:30:47.476Z,5.07
2018-09-15T03:33:14.644Z,4.87
2018-09-15T03:35:41.819Z,5.30
2018-09-15T03:38:08.992Z,4.67
2018-09-15T03:40:36.167Z,5.00
2018-09-15T03:43:03.388Z,5.47
2018-09-15T03:45:30.572Z,5.43
2018-09-15T03:47:57.752Z,5.10
2018-09-15T03:50:24.944Z,4.80
2018-09-15T03:52:52.228Z,4.00
2018-09-15T03:55:19.417Z,4.17
2018-09-15T03:57:46.583Z,4.13
2018-09-15T04:00:13.799Z,4.00
2018-09-15T04:02:41.012Z,3.83
2018-09-15T04:05:08.180Z,3.73
2018-09-15T04:07:35.356Z,3.60
2018-09-15T04:10:02.552Z,3.63
2018-09-15T04:12:29.740Z,3.30
2018-09-15T04:14:56.916Z,3.73
2018-09-15T04:17:24.104Z,3.10
2018-09-15T04:19:51.476Z,3.50
2018-09-15T04:22:18.853Z,4.00
2018-09-15T04:24:46.212Z,3.60
2018-09-15T04:27:13.572Z,3.77
2018-09-15T04:29:40.976Z,3.43
2018-09-15T04:32:08.436Z,3.50
2018-09-15T04:34:35.825Z,4.67
2018-09-15T04:37:03.277Z,3.20
2018-09-15T04:39:30.697Z,3.30
2018-09-15T04:41:58.136Z,2.97
2018-09-15T04:44:25.538Z,3.07
2018-09-15T04:46:52.952Z,3.40
2018-09-15T04:49:20.504Z,3.47
2018-09-15T04:51:47.912Z,3.10
2018-09-15T04:54:15.348Z,2.70
2018-09-15T04:56:42.852Z,3.47
2018-09-15T04:59:10.389Z,3.07
2018-09-15T05:01:37.803Z,3.07
2018-09-15T05:04:06.288Z,3.43
2018-09-15T05:06:33.741Z,3.20
2018-09-15T05:09:01.132Z,3.63
2018-09-15T05:11:28.560Z,2.97
2018-09-15T05:13:56.005Z,3.37
2018-09-15T05:16:23.440Z,2.93
2018-09-15T05:18:50.849Z,2.83
2018-09-15T05:21:18.267Z,2.80
2018-09-15T05:23:45.716Z,4.13
2018-09-15T05:26:13.187Z,2.80
2018-09-15T05:28:40.606Z,2.90
2018-09-15T05:31:08.032Z,3.20
2018-09-15T05:33:35.460Z,3.07
2018-09-15T05:36:02.898Z,3.27
2018-09-15T05:38:30.300Z,4.50
2018-09-15T05:40:57.747Z,3.50
2018-09-15T05:43:25.207Z,3.57
2018-09-15T05:45:52.611Z,3.70
2018-09-15T05:48:20.053Z,4.10
2018-09-15T05:50:47.459Z,3.83
2018-09-15T05:53:14.861Z,3.20
2018-09-15T05:55:42.291Z,4.00
2018-09-15T05:58:09.703Z,3.80
2018-09-15T06:00:37.206Z,3.57
2018-09-15T06:03:04.593Z,3.60
2018-09-15T06:05:32.043Z,3.77
2018-09-15T06:07:59.472Z,4.30
2018-09-15T06:10:26.907Z,3.63
2018-09-15T06:12:54.360Z,3.77
2018-09-15T06:15:21.872Z,3.67
2018-09-15T06:17:49.328Z,3.73
2018-09-15T06:20:22.747Z,3.77
2018-09-15T06:22:49.968Z,3.90
2018-09-15T06:25:17.269Z,3.70
2018-09-15T06:27:44.509Z,5.30
2018-09-15T06:30:12.827Z,3.40
2018-09-15T06:32:40.197Z,3.47
2018-09-15T06:35:08.467Z,3.80
2018-09-15T06:37:35.771Z,3.40
2018-09-15T06:40:03.056Z,3.73
2018-09-15T06:42:30.874Z,4.47
2018-09-15T06:44:58.126Z,4.07
2018-09-15T06:47:25.392Z,3.50
2018-09-15T06:49:52.608Z,4.10
2018-09-15T06:52:19.837Z,4.13
2018-09-15T06:54:47.184Z,4.53
2018-09-15T06:57:17.941Z,4.03
2018-09-15T06:59:45.188Z,3.93
2018-09-15T07:02:12.443Z,3.50
2018-09-15T07:04:39.690Z,3.33
2018-09-15T07:07:06.980Z,3.40
2018-09-15T07:09:34.252Z,3.73
2018-09-15T07:12:01.551Z,3.47
2018-09-15T07:14:29.832Z,3.50
2018-09-15T07:16:57.094Z,3.40
2018-09-15T07:19:24.339Z,3.27
2018-09-15T07:21:51.578Z,3.87
2018-09-15T07:24:18.867Z,3.40
2018-09-15T07:26:46.104Z,4.13
2018-09-15T07:29:17.338Z,3.73
2018-09-15T07:31:48.902Z,4.23
2018-09-15T07:34:20.547Z,4.23
2018-09-15T07:36:47.804Z,3.67
2018-09-15T07:39:15.063Z,3.80
2018-09-15T07:41:43.324Z,4.00
2018-09-15T07:44:10.576Z,4.23
2018-09-15T07:46:37.816Z,4.40
2018-09-15T07:49:05.759Z,3.87
2018-09-15T07:51:34.096Z,4.30
2018-09-15T07:54:01.334Z,3.43
2018-09-15T07:56:28.568Z,4.03
2018-09-15T07:58:57.870Z,4.70
2018-09-15T08:01:25.169Z,4.10
2018-09-15T08:03:52.467Z,4.37
2018-09-15T08:06:25.534Z,4.03
2018-09-15T08:08:52.792Z,3.97
2018-09-15T08:11:20.075Z,4.50
2018-09-15T08:13:47.339Z,4.03
2018-09-15T08:16:14.592Z,3.57
2018-09-15T08:18:41.829Z,4.53
2018-09-15T08:21:09.059Z,3.63
2018-09-15T08:23:36.277Z,11.33
2018-09-15T08:26:03.553Z,3.67
2018-09-15T08:28:30.807Z,3.87
2018-09-15T08:30:58.028Z,3.77
2018-09-15T08:33:25.271Z,3.50
2018-09-15T08:35:52.885Z,3.80
2018-09-15T08:38:20.154Z,3.47
2018-09-15T08:40:47.352Z,3.93
2018-09-15T08:43:14.638Z,4.10
2018-09-15T08:45:44.920Z,4.80
2018-09-15T08:48:12.136Z,3.33
2018-09-15T08:50:39.670Z,3.33
2018-09-15T08:53:06.907Z,4.17
2018-09-15T08:55:34.131Z,3.50
2018-09-15T08:58:01.364Z,3.80
2018-09-15T09:00:28.570Z,3.60
2018-09-15T09:02:55.818Z,4.10
2018-09-15T09:05:23.044Z,4.00
2018-09-15T09:07:50.271Z,3.53
2018-09-15T09:10:19.723Z,3.40
2018-09-15T09:12:46.848Z,4.17
2018-09-15T09:15:14.088Z,4.00
2018-09-15T09:17:41.307Z,4.10
2018-09-15T09:20:08.546Z,3.93
2018-09-15T09:22:35.773Z,4.63
2018-09-15T09:25:03.052Z,3.27
2018-09-15T09:27:30.276Z,3.47
2018-09-15T09:29:57.467Z,4.97
2018-09-15T09:32:24.686Z,4.83
2018-09-15T09:34:51.878Z,4.73
2018-09-15T09:37:19.063Z,4.27
2018-09-15T09:39:46.296Z,5.00
2018-09-15T09:42:13.512Z,4.97
2018-09-15T09:44:40.680Z,5.20
2018-09-15T09:47:07.864Z,5.73
2018-09-15T09:49:35.028Z,6.00
2018-09-15T09:52:02.235Z,6.50
2018-09-15T09:54:29.435Z,6.37
2018-09-15T09:56:56.636Z,6.73
2018-09-15T09:59:23.909Z,6.73
2018-09-15T10:01:57.114Z,7.13
2018-09-15T10:04:24.408Z,7.77
2018-09-15T10:06:51.590Z,7.90
2018-09-15T10:09:18.795Z,7.60
2018-09-15T10:11:45.960Z,8.33
2018-09-15T10:14:13.188Z,7.50
2018-09-15T10:16:40.352Z,7.93
2018-09-15T10:19:08.217Z,8.60
2018-09-15T10:21:35.456Z,9.97
2018-09-15T10:24:02.618Z,10.10
2018-09-15T10:26:29.796Z,10.50
2018-09-15T10:28:56.980Z,10.90
2018-09-15T10:31:24.339Z,9.73
2018-09-15T10:33:51.580Z,10.07
2018-09-15T10:36:18.835Z,9.93
2018-09-15T10:38:46.138Z,8.53
2018-09-15T10:41:14.635Z,9.10
2018-09-15T10:43:41.875Z,8.93
2018-09-15T10:46:09.117Z,8.20
2018-09-15T10:48:36.323Z,7.70
2018-09-15T10:51:03.607Z,7.53
2018-09-15T10:53:30.833Z,6.50
2018-09-15T10:55:58.656Z,6.33
2018-09-15T10:58:25.832Z,6.40
2018-09-15T11:00:53.132Z,4.63
2018-09-15T11:03:21.910Z,5.10
2018-09-15T11:05:49.799Z,5.90
2018-09-15T11:08:17.044Z,5.50
2018-09-15T11:10:45.479Z,6.30
2018-09-15T11:13:12.732Z,6.40
2018-09-15T11:15:39.946Z,6.50
2018-09-15T11:18:07.186Z,5.07
2018-09-15T11:20:34.476Z,5.63
2018-09-15T11:23:01.705Z,6.23
2018-09-15T11:25:29.110Z,5.23
2018-09-15T11:27:56.339Z,6.17
2018-09-15T11:30:23.547Z,6.00
2018-09-15T11:32:50.734Z,5.37
2018-09-15T11:35:17.909Z,5.40
2018-09-15T11:37:45.121Z,5.87
2018-09-15T11:40:12.395Z,5.90
2018-09-15T11:42:39.552Z,5.03
2018-09-15T11:45:07.820Z,4.17
2018-09-15T11:47:34.996Z,4.00
2018-09-15T11:50:02.184Z,3.70
2018-09-15T11:52:29.532Z,3.10
2018-09-15T11:54:56.722Z,3.70
2018-09-15T11:57:23.905Z,3.23
2018-09-15T11:59:51.078Z,3.07
2018-09-15T12:02:22.247Z,3.80
2018-09-15T12:04:49.468Z,3.03
2018-09-15T12:07:16.653Z,2.70
2018-09-15T12:09:43.824Z,2.97
2018-09-15T12:12:11.004Z,2.83
2018-09-15T12:14:38.207Z,2.17
2018-09-15T12:17:05.368Z,1.77
2018-09-15T12:19:32.555Z,2.30
2018-09-15T12:21:59.712Z,2.50
2018-09-15T12:24:26.879Z,2.87
2018-09-15T12:26:54.035Z,2.90
2018-09-15T12:29:21.263Z,2.10
2018-09-15T12:31:48.536Z,2.90
2018-09-15T12:34:15.755Z,2.90
2018-09-15T12:36:42.988Z,3.30
2018-09-15T12:39:10.184Z,2.63
2018-09-15T12:41:37.496Z,3.20
2018-09-15T12:44:04.692Z,3.67
2018-09-15T12:46:31.948Z,3.60
2018-09-15T12:48:59.105Z,4.67
2018-09-15T12:51:26.293Z,4.70
2018-09-15T12:53:53.499Z,4.97
2018-09-15T12:56:20.659Z,5.80
2018-09-15T12:58:48.016Z,5.30
2018-09-15T13:01:15.199Z,4.73
2018-09-15T13:03:42.368Z,3.40
2018-09-15T13:06:09.564Z,4.17
2018-09-15T13:08:36.738Z,3.77
2018-09-15T13:11:03.936Z,4.17
2018-09-15T13:13:33.035Z,3.90
2018-09-15T13:16:00.456Z,3.83
2018-09-15T13:18:27.851Z,3.90
2018-09-15T13:20:55.240Z,4.30
2018-09-15T13:23:22.596Z,3.90
2018-09-15T13:25:49.981Z,4.23
2018-09-15T13:28:17.352Z,4.10
2018-09-15T13:30:44.727Z,4.20
2018-09-15T13:33:12.095Z,4.20
2018-09-15T13:35:39.456Z,3.97
2018-09-15T13:38:06.811Z,4.37
2018-09-15T13:40:34.208Z,3.83
2018-09-15T13:43:01.573Z,5.00
2018-09-15T13:45:28.941Z,4.47
2018-09-15T13:47:56.295Z,4.03
2018-09-15T13:50:23.667Z,4.00
2018-09-15T13:52:51.091Z,3.07
2018-09-15T13:55:18.447Z,2.90
2018-09-15T13:57:45.852Z,3.13
2018-09-15T14:00:13.207Z,2.90
2018-09-15T14:02:41.367Z,2.80
2018-09-15T14:05:09.486Z,3.13
2018-09-15T14:07:36.840Z,2.30
2018-09-15T14:10:07.049Z,2.60
2018-09-15T14:12:31.640Z,2.67
2018-09-15T14:14:59.008Z,2.77
2018-09-15T14:17:26.348Z,2.50
2018-09-15T14:19:53.735Z,3.17
2018-09-15T14:22:22.194Z,3.33
2018-09-15T14:24:50.564Z,2.80
2018-09-15T14:27:17.943Z,2.47
2018-09-15T14:29:45.349Z,2.27
2018-09-15T14:32:14.037Z,2.70
2018-09-15T14:34:41.451Z,2.50
2018-09-15T14:37:08.828Z,2.73
2018-09-15T14:39:36.203Z,3.10
2018-09-15T14:42:03.687Z,3.30
2018-09-15T14:44:31.068Z,3.20
2018-09-15T14:46:58.523Z,2.60
2018-09-15T14:49:25.950Z,3.00
2018-09-15T14:51:53.356Z,2.90
2018-09-15T14:54:20.752Z,2.90
2018-09-15T14:56:48.116Z,3.23
2018-09-15T14:59:15.606Z,3.10
2018-09-15T15:01:43.019Z,3.80
2018-09-15T15:04:10.353Z,3.20
2018-09-15T15:06:37.744Z,2.93
2018-09-15T15:09:06.581Z,2.90
2018-09-15T15:11:33.935Z,3.03
2018-09-15T15:14:01.290Z,3.20
2018-09-15T15:16:28.871Z,3.30
2018-09-15T15:18:56.239Z,3.10
2018-09-15T15:21:23.611Z,3.30
2018-09-15T15:23:50.995Z,3.30
2018-09-15T15:26:18.381Z,3.30
2018-09-15T15:28:46.108Z,3.27
2018-09-15T15:31:13.595Z,3.50
2018-09-15T15:33:41.023Z,3.60
2018-09-15T15:36:09.511Z,4.00
2018-09-15T15:38:36.935Z,3.07
2018-09-15T15:41:04.403Z,3.77
2018-09-15T15:43:31.880Z,3.30
2018-09-15T15:45:59.249Z,3.73
2018-09-15T15:48:26.695Z,3.13
2018-09-15T15:50:54.129Z,3.20
2018-09-15T15:53:21.596Z,3.43
2018-09-15T15:55:49.064Z,3.33
2018-09-15T15:58:16.474Z,3.90
2018-09-15T16:00:43.869Z,3.80
2018-09-15T16:03:11.320Z,3.87
2018-09-15T16:05:38.760Z,3.80
2018-09-15T16:08:06.187Z,3.20
2018-09-15T16:10:33.632Z,3.70
2018-09-15T16:13:01.115Z,4.20
2018-09-15T16:15:28.535Z,3.80
2018-09-15T16:17:55.955Z,3.90
2018-09-15T16:20:23.369Z,4.13
2018-09-15T16:22:50.779Z,4.13
2018-09-15T16:25:18.195Z,4.47
2018-09-15T16:27:45.743Z,3.67
2018-09-15T16:30:13.155Z,4.53
2018-09-15T16:32:40.588Z,3.50
2018-09-15T16:35:07.971Z,3.83
2018-09-15T16:37:35.331Z,4.10
2018-09-15T16:40:02.744Z,3.50
2018-09-15T16:42:30.112Z,4.40
2018-09-15T16:44:57.472Z,3.60
2018-09-15T16:47:24.904Z,3.90
2018-09-15T16:49:52.351Z,3.50
2018-09-15T16:52:19.865Z,3.50
2018-09-15T16:54:47.343Z,3.13
2018-09-15T16:57:14.756Z,3.30
2018-09-15T16:59:42.164Z,3.13
2018-09-15T17:02:09.623Z,3.20
2018-09-15T17:04:37.112Z,3.37
2018-09-15T17:07:04.769Z,3.50
2018-09-15T17:09:32.164Z,3.67
2018-09-15T17:11:59.691Z,3.77
2018-09-15T17:14:27.118Z,3.60
2018-09-15T17:16:54.563Z,3.60
2018-09-15T17:19:22.239Z,3.80
2018-09-15T17:21:49.605Z,4.40
2018-09-15T17:24:16.977Z,5.83
2018-09-15T17:26:44.579Z,5.30
2018-09-15T17:29:12.059Z,5.83
2018-09-15T17:31:39.521Z,5.63
2018-09-15T17:34:07.015Z,4.60
2018-09-15T17:36:34.469Z,7.20
2018-09-15T17:39:01.956Z,9.37
2018-09-15T17:41:29.668Z,10.13
2018-09-15T17:43:57.092Z,8.50
2018-09-15T17:46:24.556Z,11.30
2018-09-15T17:48:52.459Z,9.57
2018-09-15T17:51:19.875Z,8.13
2018-09-15T17:53:47.308Z,7.83
2018-09-15T17:56:14.796Z,8.20
2018-09-15T17:58:42.228Z,8.90
2018-09-15T18:01:09.649Z,8.20
2018-09-15T18:03:37.205Z,7.53
2018-09-15T18:06:04.551Z,7.60
2018-09-15T18:08:31.964Z,7.20
2018-09-15T18:10:59.425Z,8.47
2018-09-15T18:13:27.015Z,6.17
2018-09-15T18:15:54.472Z,6.77
2018-09-15T18:18:22.636Z,5.80
2018-09-15T18:20:50.085Z,6.30
2018-09-15T18:23:17.533Z,6.30
2018-09-15T18:25:45.605Z,6.30
2018-09-15T18:28:13.099Z,5.90
2018-09-15T18:30:40.455Z,7.03
2018-09-15T18:33:07.915Z,6.77
2018-09-15T18:35:35.401Z,6.13
2018-09-15T18:38:02.945Z,5.87
2018-09-15T18:40:31.261Z,5.73
2018-09-15T18:43:01.078Z,5.87
2018-09-15T18:45:28.528Z,6.03
2018-09-15T18:47:55.968Z,6.70
2018-09-15T18:50:23.594Z,7.33
2018-09-15T18:52:51.245Z,7.20
2018-09-15T18:55:18.769Z,6.33
2018-09-15T18:57:46.808Z,8.23
2018-09-15T19:00:14.504Z,8.50
2018-09-15T19:02:42.295Z,9.33
2018-09-15T19:05:13.151Z,8.77
2018-09-15T19:07:40.665Z,10.67
2018-09-15T19:10:08.066Z,11.00
2018-09-15T19:12:36.417Z,10.97
2018-09-15T19:15:04.014Z,10.60
2018-09-15T19:17:31.981Z,9.60
2018-09-15T19:20:01.472Z,8.70
2018-09-15T19:22:28.699Z,7.80
2018-09-15T19:24:56.434Z,11.13
2018-09-15T19:27:23.941Z,11.00
2018-09-15T19:29:51.225Z,10.13
2018-09-15T19:32:19.216Z,9.80
2018-09-15T19:34:46.453Z,9.10
2018-09-15T19:37:15.892Z,9.40
2018-09-15T19:39:43.311Z,9.10
2018-09-15T19:42:10.585Z,9.40
2018-09-15T19:44:38.237Z,9.23
2018-09-15T19:47:05.847Z,9.10
2018-09-15T19:49:33.148Z,9.33
2018-09-15T19:52:00.750Z,10.03
2018-09-15T19:54:28.243Z,9.03
2018-09-15T19:56:56.539Z,9.40
2018-09-15T19:59:24.010Z,9.30
2018-09-15T20:01:52.600Z,9.13
2018-09-15T20:04:20.324Z,9.30
2018-09-15T20:06:47.720Z,9.10
2018-09-15T20:09:15.456Z,9.13
2018-09-15T20:11:43.030Z,9.40
2018-09-15T20:14:10.440Z,9.30
2018-09-15T20:16:36.936Z,9.17
2018-09-15T20:19:03.542Z,9.80
2018-09-15T20:21:31.107Z,10.20
2018-09-15T20:24:02.785Z,7.93
2018-09-15T20:26:30.227Z,10.10
2018-09-15T20:28:57.794Z,9.47
2018-09-15T20:31:25.331Z,10.30
2018-09-15T20:33:52.715Z,9.70
2018-09-15T20:36:20.139Z,9.87
2018-09-15T20:38:47.588Z,9.97
2018-09-15T20:41:15.057Z,9.00
2018-09-15T20:43:42.515Z,9.27
2018-09-15T20:46:09.942Z,9.23
2018-09-15T20:48:38.476Z,9.17
2018-09-15T20:51:05.939Z,9.87
2018-09-15T20:53:33.496Z,9.90
2018-09-15T20:56:00.958Z,9.73
2018-09-15T20:58:28.372Z,9.20
2018-09-15T21:00:55.908Z,9.60
2018-09-15T21:03:23.325Z,8.97
2018-09-15T21:05:50.738Z,9.30
2018-09-15T21:08:18.267Z,9.97
2018-09-15T21:10:45.793Z,9.13
2018-09-15T21:13:13.237Z,9.30
2018-09-15T21:15:40.631Z,9.97
2018-09-15T21:18:08.178Z,10.50
2018-09-15T21:20:35.600Z,12.17
2018-09-15T21:23:03.093Z,11.93
2018-09-15T21:25:30.571Z,12.33
2018-09-15T21:27:58.140Z,10.43
2018-09-15T21:30:25.928Z,13.60
2018-09-15T21:32:55.349Z,11.80
2018-09-15T21:35:22.890Z,21.40
2018-09-15T21:37:51.389Z,22.80
2018-09-15T21:40:18.800Z,20.47
2018-09-15T21:45:44.695Z,16.47
2018-09-15T21:48:13.202Z,15.10
2018-09-15T21:50:40.746Z,13.93
2018-09-15T21:53:08.163Z,16.80
2018-09-15T21:55:36.692Z,16.63
2018-09-15T21:58:04.912Z,18.73
2018-09-15T22:00:32.484Z,17.27
2018-09-15T22:02:59.936Z,15.80
2018-09-15T22:05:30.610Z,14.60
2018-09-15T22:07:58.071Z,16.20
2018-09-15T22:10:25.579Z,13.30
2018-09-15T22:12:53.081Z,11.90
2018-09-15T22:15:23.281Z,11.87
2018-09-15T22:17:50.790Z,10.50
2018-09-15T22:20:18.454Z,11.90
2018-09-15T22:22:46.010Z,11.23
2018-09-15T22:25:25.701Z,11.40
2018-09-15T22:27:53.219Z,9.90
2018-09-15T22:30:20.737Z,11.77
2018-09-15T22:32:48.234Z,11.20
2018-09-15T22:35:19.707Z,11.20
2018-09-15T22:37:47.198Z,11.10
2018-09-15T22:40:14.728Z,10.37
2018-09-15T22:42:42.269Z,9.93
2018-09-15T22:45:09.831Z,10.00
2018-09-15T22:47:37.576Z,11.00
2018-09-15T22:50:05.236Z,11.43
2018-09-15T22:52:32.896Z,10.50
2018-09-15T22:55:00.478Z,9.90
2018-09-15T22:57:28.067Z,10.90
2018-09-15T22:59:55.592Z,10.60
2018-09-15T23:02:23.075Z,15.30
2018-09-15T23:04:54.217Z,18.13
2018-09-15T23:07:21.681Z,14.23
2018-09-15T23:09:49.177Z,14.50
2018-09-15T23:12:16.687Z,13.20
2018-09-15T23:14:46.307Z,13.83
2018-09-15T23:17:14.678Z,14.93
2018-09-15T23:19:43.109Z,17.70
2018-09-15T23:22:11.485Z,28.47
2018-09-15T23:24:38.898Z,14.50
2018-09-15T23:27:08.310Z,12.60
2018-09-15T23:29:40.292Z,12.50
2018-09-15T23:32:07.761Z,12.07
2018-09-15T23:34:35.068Z,14.07
2018-09-15T23:37:02.394Z,13.60
2018-09-15T23:39:29.649Z,14.57
2018-09-15T23:41:57.039Z,13.40
2018-09-15T23:44:24.289Z,12.90
2018-09-15T23:46:51.573Z,12.30
2018-09-15T23:49:18.883Z,12.37
2018-09-15T23:51:46.153Z,12.80
2018-09-15T23:54:13.507Z,12.87
2018-09-15T23:56:40.778Z,14.77
2018-09-15T23:59:08.051Z,15.37
